METAR Data
IDs: Format: Raw Decoded Include TAF

Data at: 1245 UTC 23 Jun 2021

PAIN 231156Z AUTO 21003KT 10SM OVC049 07/05 A2973 RMK AO2 SLP082 T00720050 10161 20072 58012